createdAt,value
2018-03-04T00:00:13.869Z,77.75
2018-03-04T00:02:41.286Z,78.10
2018-03-04T00:05:08.707Z,78.32
2018-03-04T00:07:36.125Z,78.98
2018-03-04T00:10:03.553Z,78.96
2018-03-04T00:12:30.977Z,78.98
2018-03-04T00:14:58.403Z,78.95
2018-03-04T00:17:25.825Z,78.82
2018-03-04T00:19:53.245Z,78.95
2018-03-04T00:22:20.751Z,79.13
2018-03-04T00:24:48.176Z,79.17
2018-03-04T00:27:15.590Z,79.44
2018-03-04T00:29:43.043Z,79.32
2018-03-04T00:32:10.471Z,79.22
2018-03-04T00:34:37.886Z,79.68
2018-03-04T00:37:05.325Z,80.18
2018-03-04T00:39:32.965Z,80.07
2018-03-04T00:42:00.412Z,80.24
2018-03-04T00:44:27.834Z,80.59
2018-03-04T00:46:55.257Z,80.96
2018-03-04T00:49:22.677Z,81.11
2018-03-04T00:51:50.093Z,80.94
2018-03-04T00:54:17.516Z,81.14
2018-03-04T00:56:44.929Z,81.35
2018-03-04T00:59:12.358Z,81.10
2018-03-04T01:01:39.774Z,81.25
2018-03-04T01:04:07.206Z,81.50
2018-03-04T01:06:34.625Z,81.37
2018-03-04T01:09:02.054Z,81.71
2018-03-04T01:11:29.475Z,81.88
2018-03-04T01:13:56.894Z,81.86
2018-03-04T01:16:24.314Z,81.57
2018-03-04T01:18:51.742Z,82.05
2018-03-04T01:21:19.209Z,81.82
2018-03-04T01:23:46.617Z,81.71
2018-03-04T01:26:14.047Z,81.64
2018-03-04T01:28:41.469Z,81.76
2018-03-04T01:31:08.893Z,82.24
2018-03-04T01:33:36.318Z,82.21
2018-03-04T01:36:03.745Z,82.53
2018-03-04T01:38:31.166Z,82.54
2018-03-04T01:40:58.590Z,82.92
2018-03-04T01:43:26.013Z,82.45
2018-03-04T01:45:53.438Z,82.75
2018-03-04T01:48:20.930Z,83.03
2018-03-04T01:50:48.354Z,83.18
2018-03-04T01:53:15.769Z,83.43
2018-03-04T01:55:43.194Z,83.64
2018-03-04T01:58:10.618Z,84.01
2018-03-04T02:00:38.434Z,83.93
2018-03-04T02:03:05.854Z,84.09
2018-03-04T02:05:33.277Z,83.79
2018-03-04T02:08:00.697Z,83.83
2018-03-04T02:10:28.113Z,83.38
2018-03-04T02:12:55.541Z,83.06
2018-03-04T02:15:22.958Z,83.18
2018-03-04T02:17:50.386Z,83.06
2018-03-04T02:20:17.819Z,82.89
2018-03-04T02:22:45.243Z,82.69
2018-03-04T02:25:12.657Z,82.65
2018-03-04T02:27:40.090Z,82.68
2018-03-04T02:30:07.511Z,82.79
2018-03-04T02:32:34.931Z,82.65
2018-03-04T02:35:02.355Z,82.65
2018-03-04T02:37:29.786Z,82.89
2018-03-04T02:39:57.220Z,83.08
2018-03-04T02:42:24.635Z,83.24
2018-03-04T02:44:52.062Z,83.05
2018-03-04T02:47:19.479Z,82.82
2018-03-04T02:49:46.910Z,82.91
2018-03-04T02:52:14.337Z,82.87
2018-03-04T02:54:41.779Z,83.10
2018-03-04T02:57:09.315Z,83.64
2018-03-04T02:59:36.730Z,84.22
2018-03-04T03:02:04.152Z,83.96
2018-03-04T03:04:31.575Z,83.91
2018-03-04T03:06:59.102Z,83.83
2018-03-04T03:09:26.531Z,83.90
2018-03-04T03:11:54.066Z,83.95
2018-03-04T03:14:21.489Z,83.76
2018-03-04T03:16:48.909Z,83.48
2018-03-04T03:19:16.334Z,83.92
2018-03-04T03:21:44.096Z,83.86
2018-03-04T03:24:11.509Z,84.00
2018-03-04T03:26:38.934Z,84.06
2018-03-04T03:29:06.360Z,84.40
2018-03-04T03:31:33.790Z,84.92
2018-03-04T03:34:01.215Z,85.85
2018-03-04T03:36:28.637Z,86.23
2018-03-04T03:38:56.061Z,86.68
2018-03-04T03:41:23.483Z,86.72
2018-03-04T03:43:50.907Z,86.64
2018-03-04T03:46:18.330Z,86.29
2018-03-04T03:48:45.762Z,86.37
2018-03-04T03:51:13.182Z,86.30
2018-03-04T03:53:40.593Z,86.10
2018-03-04T03:56:08.018Z,86.17
2018-03-04T03:58:35.438Z,86.30
2018-03-04T04:01:02.878Z,86.01
2018-03-04T04:03:30.302Z,85.71
2018-03-04T04:05:57.738Z,85.98
2018-03-04T04:08:25.157Z,86.01
2018-03-04T04:10:52.589Z,85.84
2018-03-04T04:13:20.010Z,85.64
2018-03-04T04:15:47.445Z,85.60
2018-03-04T04:18:14.866Z,85.69
2018-03-04T04:20:42.287Z,85.84
2018-03-04T04:23:09.714Z,85.72
2018-03-04T04:25:37.166Z,85.64
2018-03-04T04:28:04.589Z,85.38
2018-03-04T04:30:32.014Z,85.25
2018-03-04T04:32:59.429Z,85.16
2018-03-04T04:35:26.858Z,85.02
2018-03-04T04:37:54.285Z,84.96
2018-03-04T04:40:21.706Z,85.04
2018-03-04T04:42:49.125Z,85.04
2018-03-04T04:45:16.553Z,85.09
2018-03-04T04:47:43.969Z,85.06
2018-03-04T04:50:11.399Z,85.48
2018-03-04T04:52:38.829Z,85.77
2018-03-04T04:55:06.257Z,85.32
2018-03-04T04:57:33.674Z,85.15
2018-03-04T05:00:01.354Z,85.20
2018-03-04T05:02:28.778Z,84.94
2018-03-04T05:04:56.201Z,84.79
2018-03-04T05:07:23.626Z,85.42
2018-03-04T05:09:51.050Z,85.28
2018-03-04T05:12:18.481Z,85.02
2018-03-04T05:14:45.919Z,85.09
2018-03-04T05:17:13.344Z,85.04
2018-03-04T05:19:40.762Z,84.76
2018-03-04T05:22:08.185Z,84.70
2018-03-04T05:24:35.619Z,84.66
2018-03-04T05:27:03.037Z,84.43
2018-03-04T05:29:30.466Z,84.72
2018-03-04T05:31:57.887Z,84.72
2018-03-04T05:34:25.341Z,84.77
2018-03-04T05:36:52.726Z,84.77
2018-03-04T05:39:20.154Z,85.25
2018-03-04T05:41:47.582Z,84.96
2018-03-04T05:44:15.014Z,85.23
2018-03-04T05:46:42.446Z,85.12
2018-03-04T05:49:09.874Z,85.51
2018-03-04T05:51:38.147Z,85.75
2018-03-04T05:54:05.570Z,85.78
2018-03-04T05:56:33.002Z,85.78
2018-03-04T05:59:00.422Z,85.72
2018-03-04T06:01:27.851Z,85.61
2018-03-04T06:03:55.283Z,85.91
2018-03-04T06:06:22.702Z,85.55
2018-03-04T06:08:50.122Z,85.72
2018-03-04T06:11:17.542Z,85.79
2018-03-04T06:13:45.062Z,85.54
2018-03-04T06:16:12.497Z,85.55
2018-03-04T06:18:39.922Z,86.14
2018-03-04T06:21:07.375Z,86.39
2018-03-04T06:23:34.790Z,86.50
2018-03-04T06:26:02.226Z,86.46
2018-03-04T06:28:29.654Z,86.39
2018-03-04T06:30:57.082Z,86.49
2018-03-04T06:33:24.551Z,86.92
2018-03-04T06:35:51.973Z,87.10
2018-03-04T06:38:19.401Z,87.17
2018-03-04T06:40:46.831Z,87.60
2018-03-04T06:43:14.267Z,87.67
2018-03-04T06:45:41.678Z,88.08
2018-03-04T06:48:09.102Z,87.68
2018-03-04T06:50:36.528Z,87.45
2018-03-04T06:53:03.946Z,87.25
2018-03-04T06:55:31.374Z,87.14
2018-03-04T06:57:58.829Z,87.43
2018-03-04T07:00:26.205Z,87.25
2018-03-04T07:02:53.629Z,87.12
2018-03-04T07:05:21.054Z,86.93
2018-03-04T07:07:48.473Z,86.57
2018-03-04T07:10:15.910Z,86.63
2018-03-04T07:12:43.316Z,86.83
2018-03-04T07:15:10.745Z,86.63
2018-03-04T07:17:38.172Z,86.66
2018-03-04T07:20:05.587Z,86.51
2018-03-04T07:22:33.025Z,86.52
2018-03-04T07:25:00.443Z,86.55
2018-03-04T07:27:27.870Z,86.69
2018-03-04T07:29:55.417Z,86.55
2018-03-04T07:32:22.858Z,86.31
2018-03-04T07:34:50.301Z,85.91
2018-03-04T07:37:17.745Z,86.00
2018-03-04T07:39:45.158Z,86.15
2018-03-04T07:42:12.578Z,86.28
2018-03-04T07:44:40.007Z,86.66
2018-03-04T07:47:07.425Z,86.72
2018-03-04T07:49:34.855Z,86.58
2018-03-04T07:52:02.267Z,86.59
2018-03-04T07:54:29.686Z,86.58
2018-03-04T07:56:57.106Z,86.62
2018-03-04T07:59:24.521Z,86.46
2018-03-04T08:01:51.937Z,86.24
2018-03-04T08:04:19.402Z,86.37
2018-03-04T08:06:46.834Z,86.43
2018-03-04T08:09:14.254Z,86.58
2018-03-04T08:11:41.671Z,86.16
2018-03-04T08:14:09.106Z,85.20
2018-03-04T08:16:36.517Z,84.67
2018-03-04T08:19:03.929Z,84.08
2018-03-04T08:21:31.345Z,83.98
2018-03-04T08:23:58.754Z,83.81
2018-03-04T08:26:38.035Z,83.09
2018-03-04T08:29:05.442Z,83.23
2018-03-04T08:31:32.870Z,82.47
2018-03-04T08:34:00.290Z,81.83
2018-03-04T08:36:27.704Z,81.66
2018-03-04T08:38:55.113Z,81.95
2018-03-04T08:41:22.519Z,82.24
2018-03-04T08:43:49.927Z,82.16
2018-03-04T08:46:17.341Z,82.01
2018-03-04T08:48:44.774Z,81.51
2018-03-04T08:51:12.173Z,81.36
2018-03-04T08:53:39.582Z,81.99
2018-03-04T08:56:07.001Z,82.36
2018-03-04T08:58:34.407Z,82.30
2018-03-04T09:01:01.826Z,81.86
2018-03-04T09:03:29.282Z,81.55
2018-03-04T09:05:56.648Z,81.78
2018-03-04T09:08:24.070Z,80.18
2018-03-04T09:10:51.494Z,79.21
2018-03-04T09:13:18.936Z,79.38
2018-03-04T09:15:46.350Z,79.84
2018-03-04T09:18:13.770Z,79.04
2018-03-04T09:20:41.180Z,79.00
2018-03-04T09:23:08.598Z,78.84
2018-03-04T09:25:36.036Z,78.16
2018-03-04T09:28:03.430Z,78.07
2018-03-04T09:30:30.889Z,77.05
2018-03-04T09:32:58.800Z,76.44
2018-03-04T09:35:27.609Z,76.74
2018-03-04T09:37:55.026Z,76.22
2018-03-04T09:40:22.470Z,76.19
2018-03-04T09:42:49.886Z,75.29
2018-03-04T09:45:17.306Z,74.94
2018-03-04T09:47:45.599Z,75.08
2018-03-04T09:50:13.026Z,74.70
2018-03-04T09:52:40.458Z,75.56
2018-03-04T09:55:09.312Z,75.77
2018-03-04T09:57:36.809Z,76.35
2018-03-04T10:00:04.214Z,76.50
2018-03-04T10:02:31.640Z,76.80
2018-03-04T10:04:59.058Z,77.27
2018-03-04T10:07:26.479Z,77.00
2018-03-04T10:09:53.886Z,77.45
2018-03-04T10:12:21.291Z,76.53
2018-03-04T10:14:48.714Z,76.95
2018-03-04T10:17:16.145Z,71.75
2018-03-04T10:19:43.564Z,71.40
2018-03-04T10:22:10.991Z,71.93
2018-03-04T10:24:38.466Z,72.63
2018-03-04T10:27:05.862Z,72.25
2018-03-04T10:29:33.371Z,70.31
2018-03-04T10:32:00.785Z,69.48
2018-03-04T10:34:28.218Z,66.51
2018-03-04T10:36:55.739Z,64.56
2018-03-04T10:39:23.153Z,64.64
2018-03-04T10:41:50.565Z,65.65
2018-03-04T10:44:18.040Z,67.62
2018-03-04T10:46:45.457Z,68.93
2018-03-04T10:49:12.867Z,69.87
2018-03-04T10:51:40.278Z,68.85
2018-03-04T10:54:07.810Z,67.63
2018-03-04T10:56:35.258Z,62.42
2018-03-04T10:59:02.678Z,59.74
2018-03-04T11:01:35.686Z,59.42
2018-03-04T11:04:03.103Z,55.20
2018-03-04T11:06:30.542Z,54.87
2018-03-04T11:08:58.842Z,55.32
2018-03-04T11:11:26.302Z,57.57
2018-03-04T11:13:53.721Z,59.08
2018-03-04T11:16:21.130Z,58.27
2018-03-04T11:18:49.544Z,55.08
2018-03-04T11:21:17.062Z,52.52
2018-03-04T11:23:44.486Z,53.27
2018-03-04T11:26:11.906Z,53.53
2018-03-04T11:28:39.341Z,53.33
2018-03-04T11:31:06.826Z,51.60
2018-03-04T11:33:34.233Z,51.17
2018-03-04T11:36:01.646Z,52.39
2018-03-04T11:38:29.058Z,53.20
2018-03-04T11:40:56.497Z,55.13
2018-03-04T11:43:23.902Z,56.21
2018-03-04T11:45:51.319Z,56.13
2018-03-04T11:48:18.736Z,57.24
2018-03-04T11:50:46.149Z,56.79
2018-03-04T11:53:13.585Z,57.63
2018-03-04T11:55:41.197Z,56.59
2018-03-04T11:58:08.616Z,57.22
2018-03-04T12:00:36.166Z,58.00
2018-03-04T12:03:03.584Z,57.10
2018-03-04T12:05:30.998Z,57.22
2018-03-04T12:07:58.409Z,55.67
2018-03-04T12:10:25.830Z,55.07
2018-03-04T12:12:53.243Z,54.91
2018-03-04T12:15:20.674Z,53.53
2018-03-04T12:17:48.142Z,52.80
2018-03-04T12:20:15.562Z,51.66
2018-03-04T12:22:42.983Z,51.02
2018-03-04T12:25:10.401Z,52.74
2018-03-04T12:27:37.828Z,51.90
2018-03-04T12:30:05.225Z,51.71
2018-03-04T12:32:32.654Z,51.44
2018-03-04T12:35:00.063Z,51.53
2018-03-04T12:37:27.483Z,51.30
2018-03-04T12:39:54.889Z,50.87
2018-03-04T12:42:22.313Z,51.79
2018-03-04T12:44:49.725Z,52.10
2018-03-04T12:47:17.142Z,51.19
2018-03-04T12:49:44.562Z,51.88
2018-03-04T12:52:11.965Z,50.71
2018-03-04T12:54:39.389Z,51.33
2018-03-04T12:57:06.803Z,51.11
2018-03-04T12:59:34.217Z,51.48
2018-03-04T13:02:01.630Z,51.67
2018-03-04T13:04:29.049Z,51.38
2018-03-04T13:06:56.457Z,50.66
2018-03-04T13:09:23.876Z,50.83
2018-03-04T13:11:51.294Z,50.49
2018-03-04T13:14:18.710Z,51.42
2018-03-04T13:16:46.131Z,51.01
2018-03-04T13:19:13.554Z,52.23
2018-03-04T13:21:40.993Z,52.82
2018-03-04T13:24:09.182Z,51.72
2018-03-04T13:26:36.605Z,51.03
2018-03-04T13:29:04.022Z,50.49
2018-03-04T13:31:31.426Z,51.28
2018-03-04T13:33:58.838Z,50.88
2018-03-04T13:36:26.469Z,50.65
2018-03-04T13:38:53.886Z,51.13
2018-03-04T13:41:22.225Z,52.34
2018-03-04T13:43:49.898Z,51.94
2018-03-04T13:46:17.305Z,52.86
2018-03-04T13:48:44.981Z,51.91
2018-03-04T13:51:12.394Z,52.93
2018-03-04T13:53:39.818Z,53.26
2018-03-04T13:56:07.346Z,53.07
2018-03-04T13:58:34.754Z,53.37
2018-03-04T14:01:02.193Z,53.59
2018-03-04T14:03:29.601Z,52.92
2018-03-04T14:05:57.017Z,54.01
2018-03-04T14:08:24.513Z,55.08
2018-03-04T14:10:51.958Z,53.68
2018-03-04T14:13:19.415Z,54.44
2018-03-04T14:15:46.829Z,54.43
2018-03-04T14:18:14.246Z,54.14
2018-03-04T14:20:41.660Z,54.34
2018-03-04T14:23:09.081Z,55.11
2018-03-04T14:25:36.531Z,54.45
2018-03-04T14:28:03.957Z,55.72
2018-03-04T14:30:31.371Z,56.04
2018-03-04T14:32:59.313Z,56.25
2018-03-04T14:35:26.729Z,56.19
2018-03-04T14:37:54.161Z,56.61
2018-03-04T14:40:21.585Z,55.94
2018-03-04T14:42:49.077Z,56.24
2018-03-04T14:45:16.527Z,56.39
2018-03-04T14:47:43.938Z,56.68
2018-03-04T14:50:11.366Z,57.87
2018-03-04T14:52:40.294Z,58.02
2018-03-04T14:55:07.722Z,58.04
2018-03-04T14:57:35.137Z,57.58
2018-03-04T15:00:02.553Z,57.75
2018-03-04T15:02:29.971Z,57.42
2018-03-04T15:04:57.381Z,57.41
2018-03-04T15:07:24.793Z,57.86
2018-03-04T15:09:52.206Z,57.45
2018-03-04T15:12:19.623Z,58.07
2018-03-04T15:14:47.042Z,57.94
2018-03-04T15:17:14.453Z,58.08
2018-03-04T15:19:41.869Z,57.76
2018-03-04T15:22:09.290Z,57.92
2018-03-04T15:24:36.698Z,58.11
2018-03-04T15:27:04.110Z,58.60
2018-03-04T15:29:31.526Z,58.74
2018-03-04T15:31:58.937Z,58.69
2018-03-04T15:34:26.367Z,58.56
2018-03-04T15:36:53.765Z,58.85
2018-03-04T15:39:21.182Z,58.82
2018-03-04T15:41:48.594Z,59.32
2018-03-04T15:44:16.090Z,59.14
2018-03-04T15:46:43.519Z,59.67
2018-03-04T15:49:10.954Z,59.94
2018-03-04T15:51:38.452Z,60.13
2018-03-04T15:54:06.782Z,60.10
2018-03-04T15:56:34.200Z,60.21
2018-03-04T15:59:01.673Z,60.49
2018-03-04T16:01:29.099Z,60.78
2018-03-04T16:03:56.509Z,61.07
2018-03-04T16:06:23.930Z,61.33
2018-03-04T16:08:51.349Z,61.74
2018-03-04T16:11:19.171Z,62.12
2018-03-04T16:13:46.629Z,62.17
2018-03-04T16:16:14.055Z,62.48
2018-03-04T16:18:41.479Z,62.32
2018-03-04T16:21:09.002Z,62.20
2018-03-04T16:23:36.458Z,62.41
2018-03-04T16:26:03.877Z,62.68
2018-03-04T16:28:31.285Z,63.09
2018-03-04T16:30:58.741Z,62.77
2018-03-04T16:33:26.207Z,63.02
2018-03-04T16:35:53.626Z,63.08
2018-03-04T16:38:21.079Z,63.37
2018-03-04T16:40:48.547Z,63.46
2018-03-04T16:43:16.069Z,64.24
2018-03-04T16:45:43.497Z,64.53
2018-03-04T16:48:10.913Z,64.38
2018-03-04T16:50:38.342Z,64.73
2018-03-04T16:53:05.761Z,64.99
2018-03-04T16:55:33.173Z,65.10
2018-03-04T16:58:00.597Z,65.14
2018-03-04T17:00:28.022Z,65.46
2018-03-04T17:02:55.749Z,65.66
2018-03-04T17:05:23.171Z,66.04
2018-03-04T17:07:50.594Z,65.74
2018-03-04T17:10:18.013Z,65.87
2018-03-04T17:12:45.441Z,65.98
2018-03-04T17:15:12.867Z,65.75
2018-03-04T17:17:40.279Z,66.16
2018-03-04T17:20:07.701Z,66.14
2018-03-04T17:22:35.101Z,67.33
2018-03-04T17:25:02.523Z,69.18
2018-03-04T17:27:30.028Z,71.71
2018-03-04T17:29:57.439Z,73.25
2018-03-04T17:32:24.855Z,74.68
2018-03-04T17:34:52.270Z,76.85
2018-03-04T17:37:19.751Z,76.21
2018-03-04T17:39:47.094Z,76.99
2018-03-04T17:42:14.517Z,76.92
2018-03-04T17:44:41.927Z,76.42
2018-03-04T17:47:09.362Z,75.81
2018-03-04T17:49:36.771Z,75.58
2018-03-04T17:52:04.214Z,75.07
2018-03-04T17:54:31.616Z,74.57
2018-03-04T17:56:59.026Z,74.48
2018-03-04T17:59:26.456Z,73.52
2018-03-04T18:01:53.861Z,73.42
2018-03-04T18:04:21.278Z,74.80
2018-03-04T18:06:48.690Z,73.87
2018-03-04T18:09:16.146Z,73.99
2018-03-04T18:11:43.550Z,73.81
2018-03-04T18:14:10.958Z,73.42
2018-03-04T18:16:38.383Z,73.53
2018-03-04T18:19:05.798Z,73.56
2018-03-04T18:21:33.245Z,73.52
2018-03-04T18:24:00.658Z,73.77
2018-03-04T18:26:28.066Z,73.72
2018-03-04T18:28:55.470Z,73.96
2018-03-04T18:31:22.886Z,73.39
2018-03-04T18:33:50.303Z,73.31
2018-03-04T18:36:17.706Z,73.62
2018-03-04T18:38:45.205Z,74.03
2018-03-04T18:41:12.635Z,74.20
2018-03-04T18:43:40.047Z,73.45
2018-03-04T18:46:07.449Z,73.73
2018-03-04T18:48:34.866Z,73.76
2018-03-04T18:51:02.301Z,73.74
2018-03-04T18:53:29.715Z,73.59
2018-03-04T18:55:57.145Z,74.45
2018-03-04T18:58:24.570Z,74.13
2018-03-04T19:00:51.978Z,74.36
2018-03-04T19:03:19.390Z,75.08
2018-03-04T19:05:47.686Z,74.66
2018-03-04T19:08:15.098Z,75.36
2018-03-04T19:10:42.509Z,74.29
2018-03-04T19:13:09.974Z,74.76
2018-03-04T19:15:37.444Z,74.62
2018-03-04T19:18:04.932Z,74.56
2018-03-04T19:20:32.371Z,74.03
2018-03-04T19:23:00.319Z,74.75
2018-03-04T19:25:27.726Z,74.26
2018-03-04T19:27:55.134Z,74.46
2018-03-04T19:30:22.577Z,74.48
2018-03-04T19:32:49.981Z,74.01
2018-03-04T19:35:17.393Z,73.84
2018-03-04T19:37:44.825Z,73.42
2018-03-04T19:40:12.254Z,73.55
2018-03-04T19:42:39.673Z,73.72
2018-03-04T19:45:07.079Z,73.31
2018-03-04T19:47:34.495Z,73.33
2018-03-04T19:50:01.996Z,73.13
2018-03-04T19:52:29.420Z,72.92
2018-03-04T19:54:56.830Z,72.99
2018-03-04T19:57:24.273Z,72.33
2018-03-04T19:59:51.678Z,72.74
2018-03-04T20:02:19.106Z,72.51
2018-03-04T20:04:46.522Z,72.64
2018-03-04T20:07:13.935Z,72.87
2018-03-04T20:09:41.351Z,72.53
2018-03-04T20:12:08.758Z,72.15
2018-03-04T20:14:36.180Z,72.27
2018-03-04T20:17:03.592Z,72.39
2018-03-04T20:19:31.000Z,72.45
2018-03-04T20:21:58.406Z,72.99
2018-03-04T20:24:25.864Z,72.83
2018-03-04T20:26:53.339Z,73.01
2018-03-04T20:29:20.774Z,72.67
2018-03-04T20:31:48.280Z,73.19
2018-03-04T20:34:15.723Z,73.21
2018-03-04T20:36:43.125Z,72.80
2018-03-04T20:39:10.542Z,73.12
2018-03-04T20:41:37.952Z,72.75
2018-03-04T20:44:06.234Z,73.13
2018-03-04T20:46:33.648Z,73.08
2018-03-04T20:49:01.058Z,73.01
2018-03-04T20:51:28.465Z,73.38
2018-03-04T20:53:55.882Z,73.15
2018-03-04T20:56:23.290Z,73.29
2018-03-04T20:58:50.706Z,73.17
2018-03-04T21:01:18.130Z,73.10
2018-03-04T21:03:45.529Z,73.03
2018-03-04T21:06:12.961Z,73.09
2018-03-04T21:08:40.386Z,72.85
2018-03-04T21:11:07.789Z,72.83
2018-03-04T21:13:35.209Z,72.96
2018-03-04T21:16:02.618Z,73.01
2018-03-04T21:18:30.069Z,72.95
2018-03-04T21:20:57.437Z,72.90
2018-03-04T21:23:24.865Z,72.69
2018-03-04T21:25:52.274Z,72.96
2018-03-04T21:28:19.682Z,72.81
2018-03-04T21:30:47.095Z,73.23
2018-03-04T21:33:14.502Z,73.19
2018-03-04T21:35:41.928Z,73.55
2018-03-04T21:38:09.333Z,73.67
2018-03-04T21:40:36.761Z,74.02
2018-03-04T21:43:04.173Z,74.17
2018-03-04T21:45:31.574Z,74.35
2018-03-04T21:47:59.006Z,74.38
2018-03-04T21:50:26.440Z,74.63
2018-03-04T21:52:53.857Z,74.34
2018-03-04T21:55:21.270Z,74.83
2018-03-04T21:57:48.686Z,75.18
2018-03-04T22:00:16.106Z,75.15
2018-03-04T22:02:43.538Z,75.01
2018-03-04T22:05:10.938Z,75.26
2018-03-04T22:07:38.350Z,75.33
2018-03-04T22:10:05.761Z,75.71
2018-03-04T22:12:33.166Z,75.54
2018-03-04T22:15:00.577Z,75.77
2018-03-04T22:17:27.997Z,75.89
2018-03-04T22:19:55.398Z,75.81
2018-03-04T22:22:22.810Z,76.08
2018-03-04T22:24:50.222Z,76.41
2018-03-04T22:27:17.638Z,76.75
2018-03-04T22:29:45.046Z,76.70
2018-03-04T22:32:12.462Z,76.69
2018-03-04T22:34:39.889Z,76.79
2018-03-04T22:37:07.298Z,76.81
2018-03-04T22:39:34.727Z,76.66
2018-03-04T22:42:02.261Z,76.78
2018-03-04T22:44:29.676Z,76.70
2018-03-04T22:46:57.087Z,76.84
2018-03-04T22:49:24.505Z,76.96
2018-03-04T22:51:51.907Z,76.97
2018-03-04T22:54:19.313Z,76.96
2018-03-04T22:56:46.731Z,77.33
2018-03-04T22:59:14.129Z,78.38
2018-03-04T23:01:41.550Z,78.70
2018-03-04T23:04:08.950Z,78.23
2018-03-04T23:06:36.626Z,78.17
2018-03-04T23:09:04.034Z,78.36
2018-03-04T23:11:31.444Z,78.38
2018-03-04T23:13:58.870Z,78.57
2018-03-04T23:16:26.290Z,78.58
2018-03-04T23:18:53.710Z,78.61
2018-03-04T23:21:21.119Z,78.91
2018-03-04T23:23:48.533Z,79.16
2018-03-04T23:26:15.949Z,79.02
2018-03-04T23:28:43.403Z,79.37
2018-03-04T23:31:10.774Z,79.63
2018-03-04T23:33:38.194Z,79.89
2018-03-04T23:36:05.601Z,79.62
2018-03-04T23:38:33.014Z,79.40
2018-03-04T23:41:00.433Z,79.58
2018-03-04T23:43:27.834Z,79.13
2018-03-04T23:45:55.245Z,79.36
2018-03-04T23:48:22.702Z,79.10
2018-03-04T23:50:50.116Z,79.31
2018-03-04T23:53:17.531Z,79.64
2018-03-04T23:55:44.939Z,79.60
2018-03-04T23:58:12.346Z,79.15
